Time;durP1;ratioP1;P1;durP2;ratioP2;P2;SDS_P1;SDS_P2;PMS_P1;PMS_P2;Temp;Humidity;BMP_temperature;BMP_pressure;BME280_temperature;BME280_humidity;BME280_pressure;Samples;Min_cycle;Max_cycle;Signal;HPM_P1;HPM_P2
2022/10/22 00:00:33;;;;;;;;;3.00;3.00;;;;;18.77;63.79;100386.31;2120518;27;46783;-76
2022/10/22 00:01:34;;;;;;;;;4.00;3.00;;;;;18.76;63.83;100385.44;2120777;27;45615;-74
2022/10/22 00:02:34;;;;;;;;;6.67;5.00;;;;;18.75;64.02;100391.78;2116854;27;45612;-72
2022/10/22 00:03:35;;;;;;;;;2.00;2.00;;;;;18.76;63.53;100388.13;2118564;27;46776;-73
2022/10/22 00:04:35;;;;;;;;;3.67;3.67;;;;;18.74;63.50;100392.75;2112920;27;46238;-73
2022/10/22 00:05:35;;;;;;;;;1.33;1.33;;;;;18.74;63.82;100390.06;2111916;27;46483;-74
2022/10/22 00:06:35;;;;;;;;;2.67;2.67;;;;;18.73;63.82;100395.53;2118611;27;45964;-74
2022/10/22 00:07:36;;;;;;;;;2.00;2.00;;;;;18.72;63.77;100394.66;2126250;27;45704;-74
2022/10/22 00:08:37;;;;;;;;;2.33;2.33;;;;;18.72;63.70;100396.50;2120673;27;45067;-73
2022/10/22 00:09:37;;;;;;;;;2.33;2.33;;;;;18.72;63.91;100408.09;2116703;27;46713;-72
2022/10/22 00:10:37;;;;;;;;;2.67;1.33;;;;;18.69;63.95;100400.22;2109075;27;45880;-74
2022/10/22 00:11:38;;;;;;;;;3.67;3.33;;;;;18.70;64.08;100401.97;2118673;27;45607;-73
2022/10/22 00:12:38;;;;;;;;;3.33;2.67;;;;;18.69;63.93;100404.75;2121484;27;46350;-78
2022/10/22 00:13:39;;;;;;;;;3.33;2.67;;;;;18.67;63.55;100404.81;2120149;27;45830;-73
2022/10/22 00:14:40;;;;;;;;;2.00;2.00;;;;;18.66;63.71;100410.28;2110734;27;45462;-76
2022/10/22 00:15:41;;;;;;;;;5.00;3.00;;;;;18.64;63.84;100401.44;2110361;27;45797;-75
2022/10/22 00:16:41;;;;;;;;;3.33;3.00;;;;;18.63;64.00;100405.94;2118736;27;45144;-75
2022/10/22 00:17:42;;;;;;;;;4.33;2.00;;;;;18.62;64.02;100409.56;2119965;27;45857;-73
2022/10/22 00:18:42;;;;;;;;;3.00;3.00;;;;;18.63;64.05;100411.31;2117602;27;46479;-74
2022/10/22 00:19:42;;;;;;;;;2.33;2.33;;;;;18.63;63.80;100408.63;2118594;27;46566;-76
2022/10/22 00:20:42;;;;;;;;;2.33;1.33;;;;;18.64;63.94;100415.75;2114722;27;46725;-75
2022/10/22 00:21:43;;;;;;;;;4.00;3.00;;;;;18.63;63.85;100416.69;2118893;27;45592;-74
2022/10/22 00:22:43;;;;;;;;;0.67;0.67;;;;;18.63;63.94;100408.63;2121166;27;45116;-73
2022/10/22 00:23:43;;;;;;;;;0.67;0.67;;;;;18.62;64.02;100414.94;2121193;27;45869;-76
2022/10/22 00:24:44;;;;;;;;;2.67;2.67;;;;;18.61;64.08;100415.91;2120600;27;45594;-77
2022/10/22 00:25:47;;;;;;;;;2.67;2.00;;;;;18.61;64.09;100418.59;2120744;27;45803;-76
2022/10/22 00:27:16;;;;;;;;;3.00;1.25;;;;;18.62;63.85;100420.31;2119281;27;47227;-74
2022/10/22 00:28:17;;;;;;;;;1.75;1.75;;;;;18.63;64.02;100431.94;2092571;28;46385;-78
2022/10/22 00:29:31;;;;;;;;;3.00;2.67;;;;;18.63;63.80;100435.50;2094896;28;46783;-77
2022/10/22 00:30:31;;;;;;;;;2.00;1.50;;;;;18.64;64.36;100434.56;2088129;28;48249;-75
2022/10/22 00:31:48;;;;;;;;;1.00;1.00;;;;;18.64;64.06;100437.25;2087203;28;46049;-74
2022/10/22 00:33:11;;;;;;;;;3.25;2.75;;;;;18.64;63.70;100439.94;2090442;28;45755;-75
2022/10/22 00:34:12;;;;;;;;;2.25;2.25;;;;;18.64;64.28;100434.56;2073164;28;47816;-79
2022/10/22 00:35:12;;;;;;;;;2.67;2.67;;;;;18.65;64.08;100433.59;2072819;28;47372;-76
2022/10/22 00:36:21;;;;;;;;;2.67;2.67;;;;;18.65;63.59;100436.28;2070896;28;46501;-73
2022/10/22 00:37:24;;;;;;;;;2.75;2.75;;;;;18.65;63.84;100446.19;2071030;28;45778;-77
2022/10/22 00:38:25;;;;;;;;;1.75;1.75;;;;;18.64;63.83;100444.47;2077543;28;48309;-75
2022/10/22 00:39:28;;;;;;;;;2.67;2.67;;;;;18.63;63.66;100446.25;2071430;28;46237;-77
2022/10/22 00:40:45;;;;;;;;;0.25;0.25;;;;;18.63;63.69;100446.25;2066801;28;46134;-78
2022/10/22 00:41:50;;;;;;;;;2.75;2.75;;;;;18.63;63.79;100448.06;2054603;28;45199;-76
2022/10/22 00:42:50;;;;;;;;;1.00;1.00;;;;;18.62;64.23;100449.88;2064353;28;45322;-73
2022/10/22 00:44:01;;;;;;;;;2.00;2.00;;;;;18.63;64.09;100453.44;2074357;28;46544;-76
2022/10/22 00:45:15;;;;;;;;;3.75;2.00;;;;;18.64;64.05;100439.06;2075662;28;45785;-76
2022/10/22 00:46:19;;;;;;;;;4.00;2.50;;;;;18.64;63.94;100444.47;2054634;28;46047;-74
2022/10/22 00:47:26;;;;;;;;;1.00;1.00;;;;;18.64;64.08;100441.78;2062361;28;45752;-77
2022/10/22 00:48:37;;;;;;;;;2.25;2.25;;;;;18.65;64.04;100446.19;2071764;28;45255;-77
2022/10/22 00:49:41;;;;;;;;;3.50;1.00;;;;;18.67;64.04;100449.63;2074246;28;45213;-74
2022/10/22 00:50:55;;;;;;;;;2.75;2.00;;;;;18.66;63.87;100447.91;2064582;28;46462;-77
2022/10/22 00:51:55;;;;;;;;;5.00;2.25;;;;;18.66;63.82;100442.53;2066836;28;46449;-78
2022/10/22 00:52:59;;;;;;;;;3.00;1.25;;;;;18.68;63.85;100448.72;2069486;28;46718;-75
2022/10/22 00:54:05;;;;;;;;;1.25;1.25;;;;;18.68;63.63;100444.19;2071437;28;46439;-74
2022/10/22 00:55:07;;;;;;;;;3.00;3.00;;;;;18.71;64.26;100445.84;2070307;28;46688;-74
2022/10/22 00:56:08;;;;;;;;;2.00;2.00;;;;;18.71;63.42;100448.53;2073777;28;46193;-77
2022/10/22 00:57:19;;;;;;;;;2.25;1.00;;;;;18.69;63.96;100447.75;2072257;28;46329;-75
2022/10/22 00:58:37;;;;;;;;;1.00;1.00;;;;;18.68;64.04;100446.88;2066414;28;45591;-78
2022/10/22 00:59:50;;;;;;;;;4.50;3.75;;;;;18.66;63.87;100456.84;2063214;28;45651;-72
2022/10/22 01:01:29;;;;;;;;;1.00;1.00;;;;;18.65;63.60;100456.94;2064373;28;45702;-75
2022/10/22 01:02:45;;;;;;;;;2.00;2.00;;;;;18.62;63.60;100447.22;2039740;28;45825;-76
2022/10/22 01:03:46;;;;;;;;;0.75;0.75;;;;;18.62;63.96;100457.94;2023781;29;48529;-76
2022/10/22 01:05:15;;;;;;;;;5.00;2.25;;;;;18.62;64.00;100455.28;2005206;29;45311;-79
2022/10/22 01:06:25;;;;;;;;;4.00;2.25;;;;;18.61;63.73;100458.91;2033169;28;45267;-76
2022/10/22 01:07:28;;;;;;;;;0.75;0.50;;;;;18.61;63.65;100458.06;2042983;28;46943;-75
2022/10/22 01:09:10;;;;;;;;;1.50;1.00;;;;;18.62;63.91;100474.09;2046853;28;47198;-74
2022/10/22 01:10:23;;;;;;;;;1.00;1.00;;;;;18.62;64.00;100468.72;2047410;28;46304;-75
2022/10/22 01:11:42;;;;;;;;;1.50;1.50;;;;;18.62;63.80;100466.03;2043653;28;46624;-75
2022/10/22 01:12:57;;;;;;;;;3.25;1.75;;;;;18.61;63.71;100474.19;2061904;28;46017;-74
2022/10/22 01:14:29;;;;;;;;;1.50;1.50;;;;;18.60;63.74;100472.44;2054670;28;46622;-74
2022/10/22 01:15:57;;;;;;;;;1.00;1.00;;;;;18.61;63.72;100479.56;2057499;28;46051;-75
2022/10/22 01:17:09;;;;;;;;;1.25;1.25;;;;;18.60;63.82;100481.38;2051193;28;45171;-75
2022/10/22 01:18:19;;;;;;;;;0.00;0.00;;;;;18.61;64.21;100482.25;2051057;28;46360;-76
2022/10/22 01:19:43;;;;;;;;;1.75;1.75;;;;;18.59;63.58;100484.16;2045067;28;48309;-75
2022/10/22 01:20:50;;;;;;;;;2.00;2.00;;;;;18.57;63.74;100489.63;2046586;28;45655;-75
2022/10/22 01:22:04;;;;;;;;;2.75;0.25;;;;;18.54;63.78;100493.34;2051777;28;47368;-72
2022/10/22 01:23:20;;;;;;;;;;;;;;;;;;;;;
2022/10/22 01:24:45;;;;;;;;;2.25;1.25;;;;;18.54;63.86;100489.78;2047134;28;46152;-78
2022/10/22 01:26:17;;;;;;;;;1.00;0.50;;;;;18.54;64.07;100497.84;2046282;28;45538;-78
2022/10/22 01:27:43;;;;;;;;;0.50;0.50;;;;;18.53;63.81;100496.97;2045797;28;46050;-76
2022/10/22 01:29:11;;;;;;;;;1.00;1.00;;;;;18.53;64.15;100512.22;2044230;28;46855;-74
2022/10/22 01:30:14;;;;;;;;;1.00;1.00;;;;;18.54;64.01;100504.06;2045860;28;46330;-75
2022/10/22 01:31:20;;;;;;;;;1.50;1.50;;;;;18.54;63.90;100506.78;2047645;28;46303;-74
2022/10/22 01:32:25;;;;;;;;;3.00;1.25;;;;;18.54;63.79;100508.59;2055282;28;46266;-75
2022/10/22 01:33:32;;;;;;;;;0.75;0.75;;;;;18.56;63.92;100503.16;2058788;28;47549;-74
2022/10/22 01:34:33;;;;;;;;;0.25;0.00;;;;;18.54;63.83;100509.44;2055525;28;46328;-75
2022/10/22 01:35:41;;;;;;;;;0.75;0.75;;;;;18.54;64.22;100509.44;2053600;28;46284;-74
2022/10/22 01:36:46;;;;;;;;;0.50;0.50;;;;;18.54;63.55;100509.44;2054384;28;45134;-76
2022/10/22 01:38:02;;;;;;;;;1.50;1.50;;;;;18.55;63.62;100507.66;2055712;28;45765;-75
2022/10/22 01:39:12;;;;;;;;;1.00;1.00;;;;;18.56;63.62;100508.53;2059062;28;45318;-77
2022/10/22 01:40:15;;;;;;;;;0.00;0.00;;;;;18.58;64.00;100517.38;2102014;27;46838;-75
2022/10/22 01:41:16;;;;;;;;;2.50;0.75;;;;;18.57;63.80;100508.44;2101215;28;46734;-74
2022/10/22 01:42:16;;;;;;;;;0.00;0.00;;;;;18.58;63.96;100510.16;2103533;28;46424;-76
2022/10/22 01:43:17;;;;;;;;;1.67;1.67;;;;;18.59;63.56;100517.28;2101796;27;46324;-74
2022/10/22 01:44:27;;;;;;;;;3.00;3.00;;;;;18.61;63.81;100522.56;2104727;27;46692;-75
2022/10/22 01:45:31;;;;;;;;;3.25;2.75;;;;;18.62;63.57;100518.91;2098999;27;46745;-76
2022/10/22 01:46:32;;;;;;;;;2.50;1.25;;;;;18.62;63.84;100518.91;2108340;27;45887;-77
2022/10/22 01:48:01;;;;;;;;;1.00;1.00;;;;;18.64;63.86;100519.72;2104392;27;46425;-77
2022/10/22 01:49:31;;;;;;;;;1.75;1.75;;;;;18.65;63.61;100516.06;2085626;28;46473;-73
2022/10/22 01:51:10;;;;;;;;;3.00;2.00;;;;;18.65;63.74;100516.06;2081338;28;46931;-77
2022/10/22 01:52:19;;;;;;;;;3.25;1.75;;;;;18.65;63.53;100516.94;2061696;28;46819;-73
2022/10/22 01:53:53;;;;;;;;;1.50;1.50;;;;;18.63;63.31;100518.81;2061211;28;46886;-74
2022/10/22 01:55:19;;;;;;;;;2.00;1.50;;;;;18.62;63.64;100517.09;2056076;28;45324;-75
2022/10/22 01:56:31;;;;;;;;;2.25;2.25;;;;;18.62;63.59;100514.41;2056256;28;45746;-75
2022/10/22 01:57:43;;;;;;;;;1.50;1.50;;;;;18.63;63.67;100513.44;2056002;28;45821;-74
2022/10/22 01:58:56;;;;;;;;;0.50;0.50;;;;;18.64;63.57;100512.50;2053767;28;46492;-75
2022/10/22 02:00:10;;;;;;;;;1.25;1.25;;;;;18.65;63.42;100505.31;2061631;28;46999;-75
2022/10/22 02:01:13;;;;;;;;;1.50;1.50;;;;;18.65;63.41;100503.50;2054555;28;46622;-74
2022/10/22 02:02:39;;;;;;;;;0.75;0.75;;;;;18.65;63.64;100511.56;2057567;28;46454;-76
2022/10/22 02:03:47;;;;;;;;;1.25;1.25;;;;;18.66;63.74;100513.28;2057927;28;45719;-76
2022/10/22 02:05:00;;;;;;;;;0.00;0.00;;;;;18.68;63.78;100513.22;2058965;28;45781;-74
2022/10/22 02:06:07;;;;;;;;;1.00;1.00;;;;;18.68;63.18;100514.09;2054075;28;46251;-76
2022/10/22 02:07:13;;;;;;;;;1.00;1.00;;;;;18.68;63.72;100510.53;2041139;28;45561;-74
2022/10/22 02:08:19;;;;;;;;;1.75;1.00;;;;;18.67;63.60;100504.25;2053599;28;46512;-76
2022/10/22 02:09:22;;;;;;;;;0.50;0.50;;;;;18.69;63.68;100510.44;2052448;28;47226;-77
2022/10/22 02:10:23;;;;;;;;;0.00;0.00;;;;;18.70;63.71;100514.88;2046643;28;45980;-77
2022/10/22 02:11:24;;;;;;;;;2.25;1.75;;;;;18.71;63.92;100513.03;2049849;28;46078;-75
2022/10/22 02:12:28;;;;;;;;;2.00;2.00;;;;;18.71;63.18;100511.22;2052162;28;46419;-75
2022/10/22 02:13:41;;;;;;;;;3.00;1.00;;;;;18.72;63.60;100522.84;2049994;28;46220;-75
2022/10/22 02:14:44;;;;;;;;;1.00;1.00;;;;;18.71;63.13;100513.91;2052872;28;46088;-73
2022/10/22 02:15:47;;;;;;;;;1.75;1.75;;;;;18.72;63.38;100517.47;2051438;28;46075;-75
2022/10/22 02:16:49;;;;;;;;;2.00;2.00;;;;;18.73;63.25;100519.19;2052595;28;46160;-75
2022/10/22 02:17:52;;;;;;;;;2.00;1.00;;;;;18.72;63.46;100518.31;2050486;28;45830;-75
2022/10/22 02:18:55;;;;;;;;;1.50;1.50;;;;;18.72;63.19;100514.75;2053206;28;46086;-76
2022/10/22 02:19:59;;;;;;;;;2.00;2.00;;;;;18.71;63.34;100515.72;2049795;28;45617;-73
2022/10/22 02:21:00;;;;;;;;;1.00;1.00;;;;;18.70;63.43;100509.47;2052297;28;45365;-76
2022/10/22 02:22:01;;;;;;;;;3.50;0.25;;;;;18.70;63.39;100509.47;2045609;28;46288;-76
2022/10/22 02:23:03;;;;;;;;;2.00;0.00;;;;;18.71;63.86;100513.91;2044299;28;46797;-74
2022/10/22 02:24:03;;;;;;;;;2.00;2.00;;;;;18.71;63.36;100513.91;2050329;28;46973;-76
2022/10/22 02:25:05;;;;;;;;;1.00;1.00;;;;;18.71;63.38;100519.28;2049282;28;46424;-74
2022/10/22 02:26:14;;;;;;;;;0.00;0.00;;;;;18.72;63.16;100522.84;2052968;28;45851;-76
2022/10/22 02:27:25;;;;;;;;;1.00;1.00;;;;;18.72;63.43;100528.22;2067817;28;46135;-75
2022/10/22 02:28:35;;;;;;;;;0.75;0.75;;;;;18.72;63.54;100523.69;2071513;28;45889;-74
2022/10/22 02:29:42;;;;;;;;;2.25;1.00;;;;;18.72;63.15;100533.59;2077503;28;46783;-76
2022/10/22 02:30:50;;;;;;;;;1.50;1.00;;;;;18.72;63.34;100530.91;2088257;28;45655;-75
2022/10/22 02:31:54;;;;;;;;;2.00;1.00;;;;;18.72;63.20;100533.59;2089741;28;45862;-72
2022/10/22 02:33:05;;;;;;;;;1.75;1.00;;;;;18.71;63.23;100534.53;2098558;28;45640;-73
2022/10/22 02:34:13;;;;;;;;;1.75;1.00;;;;;18.73;63.51;100530.81;2087053;28;45734;-75
2022/10/22 02:35:18;;;;;;;;;2.50;1.75;;;;;18.75;62.97;100528.03;2076457;28;47130;-73
2022/10/22 02:36:20;;;;;;;;;2.00;1.00;;;;;18.75;63.31;100531.56;2085922;28;46131;-74
2022/10/22 02:37:23;;;;;;;;;1.25;1.00;;;;;18.75;63.25;100515.44;2085515;28;46603;-76
2022/10/22 02:38:26;;;;;;;;;0.75;0.75;;;;;18.75;63.13;100518.13;2087744;27;45944;-75
2022/10/22 02:39:28;;;;;;;;;1.75;0.00;;;;;18.74;63.12;100521.78;2119799;27;45602;-75
2022/10/22 02:40:30;;;;;;;;;1.00;0.50;;;;;18.73;63.21;100524.56;2117330;27;45213;-75
2022/10/22 02:41:30;;;;;;;;;1.25;1.25;;;;;18.72;63.36;100529.06;2118715;27;46926;-76
2022/10/22 02:42:32;;;;;;;;;1.00;1.00;;;;;18.71;63.32;100521.97;2112947;27;46881;-74
2022/10/22 02:43:41;;;;;;;;;1.00;1.00;;;;;18.70;63.01;100522.94;2112070;27;45806;-75
2022/10/22 02:44:42;;;;;;;;;1.00;1.00;;;;;18.71;63.30;100521.09;2118177;27;46150;-72
2022/10/22 02:45:43;;;;;;;;;1.25;0.25;;;;;18.69;63.56;100531.09;2119643;27;46990;-73
2022/10/22 02:46:43;;;;;;;;;1.00;1.00;;;;;18.69;63.42;100523.03;2116009;27;45130;-76
2022/10/22 02:47:44;;;;;;;;;4.00;2.00;;;;;18.67;63.35;100523.09;2120380;27;45440;-76
2022/10/22 02:48:44;;;;;;;;;0.00;0.00;;;;;18.67;63.41;100524.91;2114516;27;46283;-76
2022/10/22 02:49:44;;;;;;;;;0.33;0.33;;;;;18.66;63.16;100533.94;2120489;27;46790;-75
2022/10/22 02:50:45;;;;;;;;;0.33;0.33;;;;;18.65;63.60;100529.50;2119743;27;45903;-74
2022/10/22 02:51:45;;;;;;;;;1.33;0.33;;;;;18.63;63.36;100531.38;2118455;27;46452;-74
2022/10/22 02:52:45;;;;;;;;;1.00;1.00;;;;;18.62;63.61;100540.41;2120013;27;45777;-76
2022/10/22 02:53:46;;;;;;;;;0.33;0.33;;;;;18.61;63.31;100534.16;2122641;27;45973;-77
2022/10/22 02:54:46;;;;;;;;;1.00;1.00;;;;;18.61;63.37;100538.69;2119225;27;45476;-76
2022/10/22 02:55:46;;;;;;;;;0.00;0.00;;;;;18.61;63.86;100549.44;2119554;27;45884;-76
2022/10/22 02:56:46;;;;;;;;;1.00;1.00;;;;;18.58;63.50;100542.41;2121838;27;46498;-72
2022/10/22 02:57:47;;;;;;;;;0.33;0.33;;;;;18.57;63.19;100545.19;2118264;27;49629;-75
2022/10/22 02:58:47;;;;;;;;;1.33;1.33;;;;;18.56;63.35;100552.41;2105527;27;46367;-75
2022/10/22 02:59:47;;;;;;;;;2.00;1.00;;;;;18.54;63.40;100554.28;2103416;28;46514;-76
2022/10/22 03:00:48;;;;;;;;;3.00;2.00;;;;;18.53;63.54;100550.72;2106742;27;46027;-75
2022/10/22 03:01:48;;;;;;;;;0.67;0.67;;;;;18.53;63.45;100548.03;2122242;27;47031;-76
2022/10/22 03:02:48;;;;;;;;;4.33;2.00;;;;;18.52;63.79;100554.38;2117003;27;45840;-76
2022/10/22 03:03:49;;;;;;;;;2.00;1.67;;;;;18.51;63.34;100549.09;2120560;27;46242;-76
2022/10/22 03:04:50;;;;;;;;;0.33;0.00;;;;;18.49;63.66;100556.38;2117122;27;46550;-76
2022/10/22 03:05:50;;;;;;;;;0.33;0.33;;;;;18.49;63.56;100564.44;2119501;27;45850;-75
2022/10/22 03:06:50;;;;;;;;;2.33;2.33;;;;;18.48;63.93;100562.69;2116564;27;46664;-72
2022/10/22 03:07:51;;;;;;;;;3.00;2.00;;;;;18.48;64.08;100562.69;2120463;27;45683;-74
2022/10/22 03:08:51;;;;;;;;;3.33;1.33;;;;;18.46;63.93;100564.63;2116352;27;46757;-74
2022/10/22 03:09:51;;;;;;;;;1.33;1.33;;;;;18.45;64.02;100560.19;2122584;27;46661;-74
2022/10/22 03:10:52;;;;;;;;;1.33;1.33;;;;;18.45;64.11;100565.56;2118380;27;46347;-74
2022/10/22 03:11:52;;;;;;;;;1.00;1.00;;;;;18.45;63.91;100562.88;2119715;27;46290;-74
2022/10/22 03:12:53;;;;;;;;;2.00;2.00;;;;;18.44;64.11;100572.78;2122092;27;45131;-76
2022/10/22 03:13:53;;;;;;;;;2.67;1.00;;;;;18.43;64.38;100564.78;2120746;27;46695;-75
2022/10/22 03:14:53;;;;;;;;;1.67;1.33;;;;;18.41;63.77;100564.84;2121724;27;46734;-74
2022/10/22 03:15:54;;;;;;;;;1.67;1.67;;;;;18.41;63.89;100564.00;2121749;27;46240;-76
2022/10/22 03:16:54;;;;;;;;;5.00;1.00;;;;;18.39;63.86;100564.09;2116393;27;45737;-76
2022/10/22 03:17:55;;;;;;;;;3.67;3.67;;;;;18.39;64.27;100566.75;2121187;27;46031;-75
2022/10/22 03:18:55;;;;;;;;;5.33;1.67;;;;;18.37;63.86;100563.31;2118586;27;46664;-75
2022/10/22 03:19:55;;;;;;;;;2.00;1.00;;;;;18.37;64.16;100568.69;2118688;27;45015;-76
2022/10/22 03:21:33;;;;;;;;;2.00;2.00;;;;;18.35;63.97;100572.41;2121218;27;45524;-76
2022/10/22 03:22:35;;;;;;;;;2.00;2.00;;;;;18.31;64.11;100571.72;2114810;27;46387;-75
2022/10/22 03:23:36;;;;;;;;;0.00;0.00;;;;;18.31;64.26;100573.53;2117891;27;45859;-74
2022/10/22 03:24:49;;;;;;;;;1.75;1.75;;;;;18.29;64.28;100573.59;2113887;27;47703;-73
2022/10/22 03:25:49;;;;;;;;;0.75;0.75;;;;;18.28;64.12;100571.00;2118536;27;46420;-76
2022/10/22 03:26:51;;;;;;;;;1.33;1.33;;;;;18.29;64.33;100583.47;2117370;27;46324;-73
2022/10/22 03:27:54;;;;;;;;;0.25;0.25;;;;;18.27;64.06;100580.88;2122175;27;45914;-76
2022/10/22 03:28:55;;;;;;;;;0.00;0.00;;;;;18.27;64.28;100580.03;2113214;27;46626;-74
2022/10/22 03:29:57;;;;;;;;;2.00;1.67;;;;;18.28;64.39;100581.75;2118747;27;46699;-73
2022/10/22 03:30:57;;;;;;;;;1.00;1.00;;;;;18.28;64.30;100581.75;2117576;27;47632;-74
2022/10/22 03:31:58;;;;;;;;;2.00;1.67;;;;;18.29;64.35;100581.66;2119362;27;45869;-73
2022/10/22 03:32:58;;;;;;;;;2.67;2.67;;;;;18.29;64.26;100572.75;2115228;27;46953;-75
2022/10/22 03:33:58;;;;;;;;;1.33;1.33;;;;;18.29;64.42;100578.09;2118783;27;45755;-75
2022/10/22 03:34:59;;;;;;;;;1.00;1.00;;;;;18.29;64.54;100584.34;2116524;27;45660;-75
2022/10/22 03:36:00;;;;;;;;;3.00;3.00;;;;;18.29;64.25;100588.84;2120345;27;46527;-74
2022/10/22 03:37:01;;;;;;;;;1.00;0.00;;;;;18.28;64.57;100581.75;2119281;27;46524;-75
2022/10/22 03:38:01;;;;;;;;;0.50;0.50;;;;;18.29;64.34;100578.09;2120686;27;46717;-75
2022/10/22 03:39:03;;;;;;;;;2.00;1.00;;;;;18.28;64.36;100582.63;2119262;27;45763;-76
2022/10/22 03:40:06;;;;;;;;;0.50;0.50;;;;;18.28;64.25;100589.81;2120496;27;46013;-75
2022/10/22 03:41:06;;;;;;;;;1.00;1.00;;;;;18.27;64.95;100588.94;2116762;27;46675;-75
2022/10/22 03:42:07;;;;;;;;;1.33;1.33;;;;;18.26;64.51;100594.41;2122381;27;46296;-74
2022/10/22 03:43:08;;;;;;;;;2.00;2.00;;;;;18.25;64.41;100588.16;2118820;27;46687;-75
2022/10/22 03:44:10;;;;;;;;;1.33;1.33;;;;;18.26;64.30;100591.72;2119368;27;46699;-74
2022/10/22 03:45:10;;;;;;;;;2.50;2.25;;;;;18.26;64.45;100594.41;2121148;27;45579;-75
2022/10/22 03:46:10;;;;;;;;;2.00;2.00;;;;;18.26;64.56;100591.72;2120670;27;46248;-76
2022/10/22 03:47:11;;;;;;;;;4.00;1.00;;;;;18.25;64.58;100596.22;2117479;27;46361;-75
2022/10/22 03:48:11;;;;;;;;;0.33;0.33;;;;;18.26;64.69;100597.09;2121275;27;46525;-76
2022/10/22 03:49:11;;;;;;;;;1.00;0.00;;;;;18.27;64.57;100605.06;2119775;27;45052;-74
2022/10/22 03:50:12;;;;;;;;;1.00;1.00;;;;;18.26;64.61;100600.66;2122082;27;47185;-75
2022/10/22 03:51:12;;;;;;;;;1.00;1.00;;;;;18.28;64.47;100603.25;2117806;27;47330;-73
2022/10/22 03:52:13;;;;;;;;;2.33;2.33;;;;;18.28;64.33;100604.09;2120384;27;47027;-74
2022/10/22 03:53:13;;;;;;;;;1.00;1.00;;;;;18.29;64.29;100604.97;2116260;27;47119;-75
2022/10/22 03:54:15;;;;;;;;;0.00;0.00;;;;;18.30;64.71;100604.06;2119047;27;46382;-76
2022/10/22 03:55:16;;;;;;;;;1.25;1.25;;;;;18.30;64.75;100604.06;2116851;27;46238;-74
2022/10/22 03:56:16;;;;;;;;;2.00;1.00;;;;;18.29;64.38;100605.84;2120479;27;45189;-76
2022/10/22 03:57:16;;;;;;;;;3.00;2.00;;;;;18.29;64.74;100605.84;2119807;27;46286;-74
2022/10/22 03:58:17;;;;;;;;;1.33;1.33;;;;;18.30;64.66;100612.13;2115208;27;46943;-75
2022/10/22 03:59:17;;;;;;;;;0.33;0.00;;;;;18.28;64.56;100606.78;2118759;27;45958;-74
2022/10/22 04:00:17;;;;;;;;;0.00;0.00;;;;;18.30;64.81;100606.75;2122711;27;45864;-73
2022/10/22 04:01:18;;;;;;;;;0.00;0.00;;;;;18.31;64.76;100616.53;2118271;27;48563;-74
2022/10/22 04:02:18;;;;;;;;;1.00;1.00;;;;;18.33;64.46;100611.94;2119473;27;48743;-76
2022/10/22 04:03:19;;;;;;;;;1.33;1.33;;;;;18.33;64.79;100607.44;2119587;27;46408;-74
2022/10/22 04:04:19;;;;;;;;;1.75;1.25;;;;;18.32;64.55;100611.06;2115566;27;46748;-74
2022/10/22 04:05:20;;;;;;;;;1.00;1.00;;;;;18.34;64.64;100613.66;2117995;27;46736;-74
2022/10/22 04:06:21;;;;;;;;;0.33;0.00;;;;;18.33;64.39;100611.94;2117302;27;46542;-75
2022/10/22 04:07:21;;;;;;;;;1.50;1.00;;;;;18.32;64.70;100613.75;2119368;27;47639;-75
2022/10/22 04:08:21;;;;;;;;;2.00;0.00;;;;;18.32;64.73;100613.75;2117118;27;44888;-74
2022/10/22 04:09:22;;;;;;;;;1.67;1.67;;;;;18.31;64.55;100614.72;2119992;27;47607;-75
2022/10/22 04:10:22;;;;;;;;;1.67;1.67;;;;;18.33;64.60;100609.25;2122046;27;45563;-75
2022/10/22 04:11:23;;;;;;;;;1.00;1.00;;;;;18.33;64.63;100622.69;2116265;27;46077;-74
2022/10/22 04:12:23;;;;;;;;;1.00;1.00;;;;;18.32;64.64;100623.63;2117127;27;45966;-75
2022/10/22 04:13:24;;;;;;;;;1.00;0.50;;;;;18.32;64.80;100618.25;2109508;27;45681;-74
2022/10/22 04:14:24;;;;;;;;;1.00;1.00;;;;;18.31;64.58;100624.59;2113045;27;45094;-73
2022/10/22 04:15:27;;;;;;;;;4.00;3.00;;;;;18.32;64.82;100637.06;2119510;27;45760;-75
2022/10/22 04:16:29;;;;;;;;;1.00;1.00;;;;;18.32;64.78;100631.69;2113678;27;45956;-75
2022/10/22 04:17:36;;;;;;;;;0.25;0.25;;;;;18.33;64.77;100631.59;2110186;27;47542;-74
2022/10/22 04:18:38;;;;;;;;;0.00;0.00;;;;;18.33;64.32;100628.06;2120050;27;46302;-73
2022/10/22 04:19:38;;;;;;;;;2.00;1.00;;;;;18.33;64.95;100633.44;2119714;27;45949;-72
2022/10/22 04:20:40;;;;;;;;;1.00;1.00;;;;;18.33;64.58;100631.59;2114735;27;46232;-75
2022/10/22 04:21:40;;;;;;;;;1.00;1.00;;;;;18.33;65.00;100631.59;2119545;27;46757;-74
2022/10/22 04:22:41;;;;;;;;;2.67;0.33;;;;;18.33;64.75;100633.44;2113789;27;46150;-75
2022/10/22 04:23:46;;;;;;;;;1.00;1.00;;;;;18.35;64.69;100634.22;2118914;27;46047;-75
2022/10/22 04:24:46;;;;;;;;;0.00;0.00;;;;;18.33;64.76;100631.59;2118579;27;45867;-74
2022/10/22 04:25:46;;;;;;;;;1.00;1.00;;;;;18.35;64.70;100637.75;2118004;27;46523;-74
2022/10/22 04:26:47;;;;;;;;;3.67;1.00;;;;;18.36;64.85;100634.13;2119306;27;46754;-74
2022/10/22 04:27:47;;;;;;;;;1.00;1.00;;;;;18.35;64.52;100635.06;2117273;27;46528;-73
2022/10/22 04:28:49;;;;;;;;;2.00;0.00;;;;;18.35;64.39;100645.81;2117311;27;46392;-75
2022/10/22 04:29:49;;;;;;;;;2.00;2.00;;;;;18.36;64.83;100635.94;2115665;27;45794;-75
2022/10/22 04:30:49;;;;;;;;;0.67;0.67;;;;;18.35;65.05;100639.56;2113751;27;46239;-75
2022/10/22 04:31:50;;;;;;;;;0.67;0.00;;;;;18.35;64.61;100637.75;2120988;27;46127;-75
2022/10/22 04:32:50;;;;;;;;;1.00;1.00;;;;;18.35;64.71;100637.75;2120690;27;46577;-74
2022/10/22 04:33:55;;;;;;;;;2.67;0.33;;;;;18.36;64.97;100634.13;2119371;27;45299;-76
2022/10/22 04:34:55;;;;;;;;;0.25;0.25;;;;;18.37;64.91;100634.97;2110639;27;47230;-75
2022/10/22 04:35:56;;;;;;;;;3.33;2.67;;;;;18.37;64.68;100635.84;2112397;27;46036;-74
2022/10/22 04:36:56;;;;;;;;;2.00;2.00;;;;;18.39;64.79;100638.44;2118443;27;46785;-75
2022/10/22 04:37:56;;;;;;;;;3.33;2.00;;;;;18.37;64.98;100638.53;2121474;27;46387;-76
2022/10/22 04:38:59;;;;;;;;;0.67;0.67;;;;;18.37;64.63;100641.22;2116116;27;45984;-74
2022/10/22 04:39:59;;;;;;;;;1.00;1.00;;;;;18.35;64.67;100645.81;2122163;27;46088;-74
2022/10/22 04:41:13;;;;;;;;;1.33;1.33;;;;;18.37;64.80;100648.41;2120092;27;46814;-75
2022/10/22 04:42:13;;;;;;;;;1.25;1.25;;;;;18.36;64.83;100642.19;2120203;27;45407;-75
2022/10/22 04:43:13;;;;;;;;;0.33;0.33;;;;;18.35;64.78;100636.88;2117011;27;45023;-74
2022/10/22 04:44:14;;;;;;;;;5.00;2.67;;;;;18.36;64.88;100646.69;2121935;27;45885;-74
2022/10/22 04:45:14;;;;;;;;;3.00;3.00;;;;;18.37;64.82;100648.41;2109165;27;46719;-75
2022/10/22 04:46:17;;;;;;;;;0.67;0.67;;;;;18.38;65.14;100642.09;2107355;27;45564;-75
2022/10/22 04:47:17;;;;;;;;;2.75;2.75;;;;;18.38;64.98;100655.53;2116942;27;45464;-76
2022/10/22 04:48:17;;;;;;;;;2.67;2.00;;;;;18.38;64.95;100660.91;2117184;27;46223;-76
2022/10/22 04:49:18;;;;;;;;;4.00;1.00;;;;;18.39;65.02;100655.44;2118285;27;45754;-74
2022/10/22 04:50:18;;;;;;;;;3.00;1.67;;;;;18.39;64.45;100659.94;2121728;27;46649;-76
2022/10/22 04:51:22;;;;;;;;;1.33;1.33;;;;;18.39;64.81;100657.25;2115667;27;46289;-74
2022/10/22 04:52:22;;;;;;;;;0.25;0.25;;;;;18.39;64.89;100665.31;2117156;27;48394;-74
2022/10/22 04:53:23;;;;;;;;;1.67;1.67;;;;;18.40;64.87;100664.34;2121268;27;46530;-72
2022/10/22 04:54:23;;;;;;;;;1.00;1.00;;;;;18.40;64.63;100659.84;2125210;27;45836;-75
2022/10/22 04:55:23;;;;;;;;;2.00;2.00;;;;;18.40;64.74;100664.34;2119862;27;46560;-74
2022/10/22 04:56:29;;;;;;;;;1.67;1.67;;;;;18.41;64.70;100669.66;2122094;27;46089;-76
2022/10/22 04:57:30;;;;;;;;;3.75;0.00;;;;;18.40;64.85;100664.34;2120549;27;46035;-76
2022/10/22 04:58:30;;;;;;;;;2.00;1.00;;;;;18.39;64.96;100665.31;2119995;27;45354;-75
2022/10/22 04:59:31;;;;;;;;;3.00;3.00;;;;;18.38;64.95;100661.75;2116762;27;45061;-75
2022/10/22 05:00:31;;;;;;;;;3.00;3.00;;;;;18.37;65.23;100656.47;2114131;27;45918;-75
2022/10/22 05:01:37;;;;;;;;;2.00;2.00;;;;;18.37;64.93;100661.84;2120559;27;45061;-75
2022/10/22 05:02:37;;;;;;;;;3.00;2.00;;;;;18.36;64.82;100658.28;2115799;27;45635;-75